首页
METAR-TAF:

METAR-TAF

机场 :

新伊斯蘭瑪巴德國際機場

伊斯兰堡, 巴基斯坦

纬度: 33-32-57N, 经度: 072-49-32E, 海拔: 537米

当前天气观测

该预报发布于47分钟前的22:00 UTC
风速6节,风向
温度 27°C
湿度 45%
气压 1003 hPa
能見度: 6000
少量云层高于4000英尺

METAR: OPIS 222200Z 09006KT 6000 FEW040 27/14 Q1003 NOSIG

时间: 03:47 (22:47 UTC)

预报

该预报发布于5小时和32分钟前的17:15 UTC
预报有效从22日的 18点(UTC)到 23日的 24点(UTC)
风速10节,风向西
能見度: 6000
少量云层高于4000英尺
散云层高于10000英尺
几率 30% :
短暂存在
从 22日的 23点(UTC)到 23日的 05点(UTC)
风速10节,风向西北,有时为25节阵风
能見度: 4000
少量云层高于3000英尺, 积雨云.
散云层高于4000英尺
多云层高于10000英尺
雷暴, 小雨
短暂存在
从 23日的 08点(UTC)到 23日的 14点(UTC)
风速10节,风向西北,有时为20节阵风
能見度: 5000
少量云层高于3000英尺, 塔状积云.
多云层高于10000英尺
成为
从 23日的 15点(UTC)到 23日的 17点(UTC)
风速10节,风向
能見度: 6000

TAF: OPIS 221715Z 2218/2324 27010KT 6000 FEW040 SCT100 PROB30 TEMPO 2223/2305 31010G25KT 4000 -TSRA FEW030CB SCT040 BKN100 TEMPO 2308/2314 31010G20KT 5000 HZ FEW030TCU BKN100 BECMG 2315/2317 09010KT 6000

超过4000个机场的气象观测和天气预报(METAR&TAF报告)。

可查询的气象台以黄色和红色小点在地图上表示。

将鼠标移到小点上方,可查看气象台名称。

然后点击查看天气观测和预报。

如需切换地图:点击带黑十字的绿色按钮放大地图;点击带横线的绿色按钮缩小地图;或者点击绿色箭头查看邻近地区的地图。


METAR-TAF: